Aviation Digital Data Service (ADDS)

Output produced by METARs form (1358 UTC 22 April 2019)
found at http://www.aviationweather.gov/metar/data/
 
Forecast for: LCPH (PAPHOS/BAF INTL , CY)
Text: TAF LCPH 221130Z 2212/2312 29018KT 9999 FEW040
Forecast period: 1200 to 1800 UTC 22 April 2019
Forecast type: FROM: standard forecast or significant change
Winds: from the WNW (290 degrees) at 21 MPH (18 knots; 9.3 m/s)
Visibility: 6 or more miles 10+ km)
Ceiling: at least 12,000 feet AGL
Clouds: few clouds at 4000 feet AGL
Weather: no significant weather forecast for this period
Text: BECMG 2218/2222 02009KT
Forecast period: 1800 UTC 22 April 2019 to 0800 UTC 23 April 2019
Forecast type: BECOMING: Conditions expected to become as follows by 2200 UTC 22 April 2019
Winds: from the NNE (20 degrees) at 10 MPH (9 knots; 4.6 m/s)
Visibility: 6 or more miles 10+ km)
Ceiling: at least 12,000 feet AGL
Clouds: few clouds at 4000 feet AGL
Weather: no significant weather forecast for this period
Text: BECMG 2308/2312 27010KT
Forecast period: 0800 to 1200 UTC 23 April 2019
Forecast type: BECOMING: Conditions expected to become as follows by 1200 UTC 23 April 2019
Winds: from the W (270 degrees) at 12 MPH (10 knots; 5.1 m/s)
Visibility: 6 or more miles 10+ km)
Ceiling: at least 12,000 feet AGL
Clouds: few clouds at 4000 feet AGL
Weather: no significant weather forecast for this period